sensor_id;sensor_type;location;lat;lon;timestamp;temperature;humidity
14901;DHT22;7542;49.078;9.194;2023-12-07T00:00:55;28.60;44.00
14901;DHT22;7542;49.078;9.194;2023-12-07T00:01:57;28.50;44.00
14901;DHT22;7542;49.078;9.194;2023-12-07T00:02:59;28.60;43.90
14901;DHT22;7542;49.078;9.194;2023-12-07T00:04:01;28.60;43.80
14901;DHT22;7542;49.078;9.194;2023-12-07T00:05:04;28.70;43.80
14901;DHT22;7542;49.078;9.194;2023-12-07T00:06:07;28.70;43.80
14901;DHT22;7542;49.078;9.194;2023-12-07T00:07:09;28.70;43.70
14901;DHT22;7542;49.078;9.194;2023-12-07T00:08:11;28.70;43.70
14901;DHT22;7542;49.078;9.194;2023-12-07T00:09:13;28.70;43.60
14901;DHT22;7542;49.078;9.194;2023-12-07T00:10:15;28.70;43.50
14901;DHT22;7542;49.078;9.194;2023-12-07T00:11:17;28.70;43.50
14901;DHT22;7542;49.078;9.194;2023-12-07T00:12:19;28.70;43.50
14901;DHT22;7542;49.078;9.194;2023-12-07T00:13:22;28.80;43.40
14901;DHT22;7542;49.078;9.194;2023-12-07T00:14:24;28.80;43.50
14901;DHT22;7542;49.078;9.194;2023-12-07T00:15:26;28.80;43.40
14901;DHT22;7542;49.078;9.194;2023-12-07T00:16:28;28.80;43.40
14901;DHT22;7542;49.078;9.194;2023-12-07T00:17:31;28.80;43.40
14901;DHT22;7542;49.078;9.194;2023-12-07T00:18:33;28.80;43.30
14901;DHT22;7542;49.078;9.194;2023-12-07T00:19:35;28.80;43.30
14901;DHT22;7542;49.078;9.194;2023-12-07T00:20:37;28.90;43.30
14901;DHT22;7542;49.078;9.194;2023-12-07T00:21:39;28.90;43.30
14901;DHT22;7542;49.078;9.194;2023-12-07T00:22:41;28.90;43.10
14901;DHT22;7542;49.078;9.194;2023-12-07T00:23:44;28.90;43.20
14901;DHT22;7542;49.078;9.194;2023-12-07T00:24:46;28.90;43.20
14901;DHT22;7542;49.078;9.194;2023-12-07T00:25:48;28.90;43.10
14901;DHT22;7542;49.078;9.194;2023-12-07T00:26:50;28.90;43.10
14901;DHT22;7542;49.078;9.194;2023-12-07T00:27:52;29.00;43.60
14901;DHT22;7542;49.078;9.194;2023-12-07T00:28:55;29.00;43.50
14901;DHT22;7542;49.078;9.194;2023-12-07T00:29:57;28.90;43.00
14901;DHT22;7542;49.078;9.194;2023-12-07T00:30:59;29.00;43.40
14901;DHT22;7542;49.078;9.194;2023-12-07T00:32:02;29.00;43.40
14901;DHT22;7542;49.078;9.194;2023-12-07T00:33:05;29.00;43.30
14901;DHT22;7542;49.078;9.194;2023-12-07T00:34:07;29.10;43.30
14901;DHT22;7542;49.078;9.194;2023-12-07T00:35:12;29.10;43.30
14901;DHT22;7542;49.078;9.194;2023-12-07T00:36:15;29.10;43.20
14901;DHT22;7542;49.078;9.194;2023-12-07T00:37:17;29.10;43.20
14901;DHT22;7542;49.078;9.194;2023-12-07T00:38:19;29.10;43.20
14901;DHT22;7542;49.078;9.194;2023-12-07T00:39:23;29.10;43.20
14901;DHT22;7542;49.078;9.194;2023-12-07T00:40:25;29.00;43.20
14901;DHT22;7542;49.078;9.194;2023-12-07T00:41:27;29.20;43.10
14901;DHT22;7542;49.078;9.194;2023-12-07T00:42:29;29.20;43.10
14901;DHT22;7542;49.078;9.194;2023-12-07T00:43:32;29.20;43.10
14901;DHT22;7542;49.078;9.194;2023-12-07T00:44:39;29.20;43.10
14901;DHT22;7542;49.078;9.194;2023-12-07T00:45:42;29.20;43.00
14901;DHT22;7542;49.078;9.194;2023-12-07T00:46:44;29.20;43.00
14901;DHT22;7542;49.078;9.194;2023-12-07T00:47:46;29.20;42.90
14901;DHT22;7542;49.078;9.194;2023-12-07T00:48:49;29.20;42.80
14901;DHT22;7542;49.078;9.194;2023-12-07T00:49:51;29.20;42.70
14901;DHT22;7542;49.078;9.194;2023-12-07T00:50:53;29.20;42.60
14901;DHT22;7542;49.078;9.194;2023-12-07T00:51:56;29.20;42.50
14901;DHT22;7542;49.078;9.194;2023-12-07T00:52:58;29.30;42.50
14901;DHT22;7542;49.078;9.194;2023-12-07T00:54:00;29.30;42.50
14901;DHT22;7542;49.078;9.194;2023-12-07T00:55:03;29.30;42.40
14901;DHT22;7542;49.078;9.194;2023-12-07T00:56:13;29.30;42.50
14901;DHT22;7542;49.078;9.194;2023-12-07T00:57:15;29.30;42.80
14901;DHT22;7542;49.078;9.194;2023-12-07T00:58:17;29.30;42.90
14901;DHT22;7542;49.078;9.194;2023-12-07T00:59:19;29.40;43.00
14901;DHT22;7542;49.078;9.194;2023-12-07T01:00:21;29.40;43.00
14901;DHT22;7542;49.078;9.194;2023-12-07T01:01:24;29.40;41.40
14901;DHT22;7542;49.078;9.194;2023-12-07T01:02:26;29.10;38.50
14901;DHT22;7542;49.078;9.194;2023-12-07T01:03:29;28.90;38.20
14901;DHT22;7542;49.078;9.194;2023-12-07T01:04:32;28.70;38.30
14901;DHT22;7542;49.078;9.194;2023-12-07T01:05:35;22.60;36.00
14901;DHT22;7542;49.078;9.194;2023-12-07T01:06:37;28.40;38.70
14901;DHT22;7542;49.078;9.194;2023-12-07T01:07:39;28.20;38.90
14901;DHT22;7542;49.078;9.194;2023-12-07T01:08:42;28.10;39.20
14901;DHT22;7542;49.078;9.194;2023-12-07T01:09:44;28.10;39.30
14901;DHT22;7542;49.078;9.194;2023-12-07T01:10:48;28.00;39.40
14901;DHT22;7542;49.078;9.194;2023-12-07T01:11:50;27.90;39.20
14901;DHT22;7542;49.078;9.194;2023-12-07T01:12:52;27.90;39.20
14901;DHT22;7542;49.078;9.194;2023-12-07T01:13:54;27.70;39.30
14901;DHT22;7542;49.078;9.194;2023-12-07T01:14:57;27.70;39.40
14901;DHT22;7542;49.078;9.194;2023-12-07T01:15:59;27.60;39.60
14901;DHT22;7542;49.078;9.194;2023-12-07T01:17:01;27.60;39.70
14901;DHT22;7542;49.078;9.194;2023-12-07T01:18:04;27.50;39.90
14901;DHT22;7542;49.078;9.194;2023-12-07T01:19:06;27.50;39.90
14901;DHT22;7542;49.078;9.194;2023-12-07T01:20:09;27.40;40.00
14901;DHT22;7542;49.078;9.194;2023-12-07T01:21:15;27.40;40.20
14901;DHT22;7542;49.078;9.194;2023-12-07T01:22:17;27.30;40.10
14901;DHT22;7542;49.078;9.194;2023-12-07T01:23:20;27.30;40.30
14901;DHT22;7542;49.078;9.194;2023-12-07T01:24:24;27.20;40.40
14901;DHT22;7542;49.078;9.194;2023-12-07T01:25:26;27.10;40.50
14901;DHT22;7542;49.078;9.194;2023-12-07T01:26:28;27.10;40.50
14901;DHT22;7542;49.078;9.194;2023-12-07T01:27:31;27.00;40.50
14901;DHT22;7542;49.078;9.194;2023-12-07T01:28:33;27.00;40.60
14901;DHT22;7542;49.078;9.194;2023-12-07T01:29:35;26.60;40.20
14901;DHT22;7542;49.078;9.194;2023-12-07T01:30:37;26.90;40.30
14901;DHT22;7542;49.078;9.194;2023-12-07T01:31:40;26.90;40.30
14901;DHT22;7542;49.078;9.194;2023-12-07T01:32:42;26.80;40.40
14901;DHT22;7542;49.078;9.194;2023-12-07T01:33:44;26.80;40.50
14901;DHT22;7542;49.078;9.194;2023-12-07T01:34:47;26.80;40.60
14901;DHT22;7542;49.078;9.194;2023-12-07T01:35:50;26.70;40.70
14901;DHT22;7542;49.078;9.194;2023-12-07T01:36:51;26.60;40.80
14901;DHT22;7542;49.078;9.194;2023-12-07T01:37:54;26.60;40.90
14901;DHT22;7542;49.078;9.194;2023-12-07T01:38:56;26.60;40.80
14901;DHT22;7542;49.078;9.194;2023-12-07T01:39:58;26.50;40.90
14901;DHT22;7542;49.078;9.194;2023-12-07T01:41:00;26.50;40.90
14901;DHT22;7542;49.078;9.194;2023-12-07T01:42:03;26.50;40.90
14901;DHT22;7542;49.078;9.194;2023-12-07T01:43:05;26.40;40.90
14901;DHT22;7542;49.078;9.194;2023-12-07T01:44:07;26.40;40.90
14901;DHT22;7542;49.078;9.194;2023-12-07T01:45:09;26.30;40.90
14901;DHT22;7542;49.078;9.194;2023-12-07T01:46:11;26.40;40.90
14901;DHT22;7542;49.078;9.194;2023-12-07T01:47:14;26.30;40.90
14901;DHT22;7542;49.078;9.194;2023-12-07T01:48:16;26.20;40.90
14901;DHT22;7542;49.078;9.194;2023-12-07T01:49:18;26.20;40.90
14901;DHT22;7542;49.078;9.194;2023-12-07T01:50:21;28.00;42.00
14901;DHT22;7542;49.078;9.194;2023-12-07T01:51:26;26.10;41.00
14901;DHT22;7542;49.078;9.194;2023-12-07T01:52:29;26.10;41.20
14901;DHT22;7542;49.078;9.194;2023-12-07T01:53:33;26.10;41.20
14901;DHT22;7542;49.078;9.194;2023-12-07T01:54:35;26.00;41.30
14901;DHT22;7542;49.078;9.194;2023-12-07T01:55:37;26.00;41.40
14901;DHT22;7542;49.078;9.194;2023-12-07T01:56:40;26.00;41.40
14901;DHT22;7542;49.078;9.194;2023-12-07T01:57:44;26.00;41.40
14901;DHT22;7542;49.078;9.194;2023-12-07T01:58:47;26.00;41.50
14901;DHT22;7542;49.078;9.194;2023-12-07T01:59:49;25.90;41.20
14901;DHT22;7542;49.078;9.194;2023-12-07T02:00:52;25.90;41.20
14901;DHT22;7542;49.078;9.194;2023-12-07T02:01:55;25.90;41.30
14901;DHT22;7542;49.078;9.194;2023-12-07T02:02:57;25.90;41.40
14901;DHT22;7542;49.078;9.194;2023-12-07T02:03:59;25.80;41.40
14901;DHT22;7542;49.078;9.194;2023-12-07T02:05:02;25.80;41.50
14901;DHT22;7542;49.078;9.194;2023-12-07T02:06:05;25.70;41.50
14901;DHT22;7542;49.078;9.194;2023-12-07T02:07:07;25.70;41.50
14901;DHT22;7542;49.078;9.194;2023-12-07T02:08:10;25.70;41.60
14901;DHT22;7542;49.078;9.194;2023-12-07T02:09:12;25.70;41.60
14901;DHT22;7542;49.078;9.194;2023-12-07T02:10:14;25.70;41.60
14901;DHT22;7542;49.078;9.194;2023-12-07T02:11:17;25.60;41.70
14901;DHT22;7542;49.078;9.194;2023-12-07T02:12:20;25.60;41.70
14901;DHT22;7542;49.078;9.194;2023-12-07T02:13:23;25.60;41.70
14901;DHT22;7542;49.078;9.194;2023-12-07T02:14:25;25.50;41.80
14901;DHT22;7542;49.078;9.194;2023-12-07T02:15:27;25.50;41.80
14901;DHT22;7542;49.078;9.194;2023-12-07T02:16:42;25.70;41.90
14901;DHT22;7542;49.078;9.194;2023-12-07T02:21:18;25.50;42.10
14901;DHT22;7542;49.078;9.194;2023-12-07T02:22:37;23.80;41.60
14901;DHT22;7542;49.078;9.194;2023-12-07T02:23:58;25.40;42.10
14901;DHT22;7542;49.078;9.194;2023-12-07T02:25:08;25.40;42.10
14901;DHT22;7542;49.078;9.194;2023-12-07T02:26:13;25.30;42.20
14901;DHT22;7542;49.078;9.194;2023-12-07T02:28:49;25.20;42.30
14901;DHT22;7542;49.078;9.194;2023-12-07T02:29:51;25.40;42.30
14901;DHT22;7542;49.078;9.194;2023-12-07T02:30:53;25.20;42.30
14901;DHT22;7542;49.078;9.194;2023-12-07T02:31:55;25.20;42.30
14901;DHT22;7542;49.078;9.194;2023-12-07T02:32:57;27.50;43.30
14901;DHT22;7542;49.078;9.194;2023-12-07T02:33:59;25.10;42.40
14901;DHT22;7542;49.078;9.194;2023-12-07T02:35:02;25.10;42.50
14901;DHT22;7542;49.078;9.194;2023-12-07T02:36:05;25.10;42.50
14901;DHT22;7542;49.078;9.194;2023-12-07T02:37:08;25.10;42.50
14901;DHT22;7542;49.078;9.194;2023-12-07T02:38:11;25.10;42.50
14901;DHT22;7542;49.078;9.194;2023-12-07T02:39:14;25.10;42.50
14901;DHT22;7542;49.078;9.194;2023-12-07T02:40:22;25.10;42.60
14901;DHT22;7542;49.078;9.194;2023-12-07T02:41:27;25.00;42.60
14901;DHT22;7542;49.078;9.194;2023-12-07T02:42:30;25.00;42.60
14901;DHT22;7542;49.078;9.194;2023-12-07T02:43:35;25.00;42.60
14901;DHT22;7542;49.078;9.194;2023-12-07T02:44:37;25.00;42.70
14901;DHT22;7542;49.078;9.194;2023-12-07T02:45:40;25.00;42.70
14901;DHT22;7542;49.078;9.194;2023-12-07T02:46:42;25.00;42.70
14901;DHT22;7542;49.078;9.194;2023-12-07T02:47:44;25.00;42.70
14901;DHT22;7542;49.078;9.194;2023-12-07T02:48:47;25.00;42.80
14901;DHT22;7542;49.078;9.194;2023-12-07T02:49:50;25.00;42.80
14901;DHT22;7542;49.078;9.194;2023-12-07T02:50:52;24.90;42.80
14901;DHT22;7542;49.078;9.194;2023-12-07T02:51:54;24.90;42.80
14901;DHT22;7542;49.078;9.194;2023-12-07T02:52:56;24.90;42.80
14901;DHT22;7542;49.078;9.194;2023-12-07T02:53:59;24.90;42.80
14901;DHT22;7542;49.078;9.194;2023-12-07T02:55:01;24.90;42.80
14901;DHT22;7542;49.078;9.194;2023-12-07T02:56:04;24.90;42.80
14901;DHT22;7542;49.078;9.194;2023-12-07T02:57:07;24.80;42.80
14901;DHT22;7542;49.078;9.194;2023-12-07T02:58:09;24.90;42.90
14901;DHT22;7542;49.078;9.194;2023-12-07T02:59:11;24.80;42.90
14901;DHT22;7542;49.078;9.194;2023-12-07T03:00:15;24.80;42.90
14901;DHT22;7542;49.078;9.194;2023-12-07T03:01:17;24.80;42.90
14901;DHT22;7542;49.078;9.194;2023-12-07T03:02:19;24.90;43.00
14901;DHT22;7542;49.078;9.194;2023-12-07T03:03:22;24.80;42.90
14901;DHT22;7542;49.078;9.194;2023-12-07T03:04:24;24.80;42.90
14901;DHT22;7542;49.078;9.194;2023-12-07T03:05:26;24.80;42.90
14901;DHT22;7542;49.078;9.194;2023-12-07T03:06:28;24.80;42.90
14901;DHT22;7542;49.078;9.194;2023-12-07T03:07:30;24.80;43.00
14901;DHT22;7542;49.078;9.194;2023-12-07T03:08:33;24.80;42.90
14901;DHT22;7542;49.078;9.194;2023-12-07T03:09:35;24.80;43.00
14901;DHT22;7542;49.078;9.194;2023-12-07T03:10:37;24.80;43.00
14901;DHT22;7542;49.078;9.194;2023-12-07T03:11:39;24.80;43.20
14901;DHT22;7542;49.078;9.194;2023-12-07T03:12:41;24.80;43.00
14901;DHT22;7542;49.078;9.194;2023-12-07T03:13:43;24.80;43.00
14901;DHT22;7542;49.078;9.194;2023-12-07T03:14:45;24.80;43.00
14901;DHT22;7542;49.078;9.194;2023-12-07T03:15:47;24.80;43.00
14901;DHT22;7542;49.078;9.194;2023-12-07T03:16:50;24.80;43.00
14901;DHT22;7542;49.078;9.194;2023-12-07T03:17:52;24.80;43.10
14901;DHT22;7542;49.078;9.194;2023-12-07T03:18:54;24.70;43.00
14901;DHT22;7542;49.078;9.194;2023-12-07T03:19:57;24.70;43.00
14901;DHT22;7542;49.078;9.194;2023-12-07T03:21:01;24.70;43.10
14901;DHT22;7542;49.078;9.194;2023-12-07T03:22:03;24.70;43.20
14901;DHT22;7542;49.078;9.194;2023-12-07T03:23:06;24.70;43.10
14901;DHT22;7542;49.078;9.194;2023-12-07T03:24:08;24.70;43.10
14901;DHT22;7542;49.078;9.194;2023-12-07T03:25:11;24.70;43.20
14901;DHT22;7542;49.078;9.194;2023-12-07T03:26:13;24.70;43.20
14901;DHT22;7542;49.078;9.194;2023-12-07T03:27:15;24.70;43.00
14901;DHT22;7542;49.078;9.194;2023-12-07T03:28:17;24.70;43.20
14901;DHT22;7542;49.078;9.194;2023-12-07T03:29:19;24.70;43.10
14901;DHT22;7542;49.078;9.194;2023-12-07T03:30:21;24.70;43.10
14901;DHT22;7542;49.078;9.194;2023-12-07T03:31:23;24.70;43.20
14901;DHT22;7542;49.078;9.194;2023-12-07T03:32:25;24.70;43.30
14901;DHT22;7542;49.078;9.194;2023-12-07T03:33:28;24.70;43.30
14901;DHT22;7542;49.078;9.194;2023-12-07T03:34:30;24.70;43.30
14901;DHT22;7542;49.078;9.194;2023-12-07T03:35:32;24.50;43.30
14901;DHT22;7542;49.078;9.194;2023-12-07T03:36:34;26.30;43.90
14901;DHT22;7542;49.078;9.194;2023-12-07T03:37:36;24.70;43.50
14901;DHT22;7542;49.078;9.194;2023-12-07T03:38:38;24.70;43.50
14901;DHT22;7542;49.078;9.194;2023-12-07T03:39:40;24.70;43.50
14901;DHT22;7542;49.078;9.194;2023-12-07T03:40:42;24.70;43.50
14901;DHT22;7542;49.078;9.194;2023-12-07T03:41:44;24.70;43.50
14901;DHT22;7542;49.078;9.194;2023-12-07T03:42:46;24.70;43.60
14901;DHT22;7542;49.078;9.194;2023-12-07T03:43:57;24.60;43.60
14901;DHT22;7542;49.078;9.194;2023-12-07T03:44:59;24.70;43.60
14901;DHT22;7542;49.078;9.194;2023-12-07T03:46:05;24.70;43.60
14901;DHT22;7542;49.078;9.194;2023-12-07T03:47:10;24.70;43.60
14901;DHT22;7542;49.078;9.194;2023-12-07T03:48:12;24.70;43.70
14901;DHT22;7542;49.078;9.194;2023-12-07T03:49:15;24.70;43.70
14901;DHT22;7542;49.078;9.194;2023-12-07T03:50:17;24.70;43.60
14901;DHT22;7542;49.078;9.194;2023-12-07T03:51:19;24.50;43.60
14901;DHT22;7542;49.078;9.194;2023-12-07T03:52:21;24.70;43.70
14901;DHT22;7542;49.078;9.194;2023-12-07T03:53:23;24.70;43.70
14901;DHT22;7542;49.078;9.194;2023-12-07T03:54:25;24.70;43.70
14901;DHT22;7542;49.078;9.194;2023-12-07T03:55:27;24.60;43.60
14901;DHT22;7542;49.078;9.194;2023-12-07T03:56:31;24.60;43.60
14901;DHT22;7542;49.078;9.194;2023-12-07T03:57:34;24.60;43.60
14901;DHT22;7542;49.078;9.194;2023-12-07T03:58:36;24.50;43.70
14901;DHT22;7542;49.078;9.194;2023-12-07T03:59:39;24.60;43.60
14901;DHT22;7542;49.078;9.194;2023-12-07T04:00:41;24.60;43.60
14901;DHT22;7542;49.078;9.194;2023-12-07T04:01:43;24.50;43.60
14901;DHT22;7542;49.078;9.194;2023-12-07T04:02:45;24.50;43.70
14901;DHT22;7542;49.078;9.194;2023-12-07T04:03:49;24.50;43.60
14901;DHT22;7542;49.078;9.194;2023-12-07T04:04:51;24.50;43.70
14901;DHT22;7542;49.078;9.194;2023-12-07T04:05:53;24.50;43.60
14901;DHT22;7542;49.078;9.194;2023-12-07T04:06:55;24.50;43.70
14901;DHT22;7542;49.078;9.194;2023-12-07T04:07:57;24.50;43.50
14901;DHT22;7542;49.078;9.194;2023-12-07T04:08:59;24.50;43.60
14901;DHT22;7542;49.078;9.194;2023-12-07T04:10:01;24.50;43.60
14901;DHT22;7542;49.078;9.194;2023-12-07T04:11:07;24.50;43.70
14901;DHT22;7542;49.078;9.194;2023-12-07T04:12:09;24.50;43.70
14901;DHT22;7542;49.078;9.194;2023-12-07T04:13:11;24.50;43.80
14901;DHT22;7542;49.078;9.194;2023-12-07T04:14:13;24.50;43.80
14901;DHT22;7542;49.078;9.194;2023-12-07T04:15:16;24.50;43.80
14901;DHT22;7542;49.078;9.194;2023-12-07T04:16:20;24.40;43.50
14901;DHT22;7542;49.078;9.194;2023-12-07T04:17:22;24.40;43.60
14901;DHT22;7542;49.078;9.194;2023-12-07T04:18:24;24.20;43.60
14901;DHT22;7542;49.078;9.194;2023-12-07T04:19:27;24.60;43.60
14901;DHT22;7542;49.078;9.194;2023-12-07T04:20:29;24.40;43.50
14901;DHT22;7542;49.078;9.194;2023-12-07T04:21:31;24.40;43.60
14901;DHT22;7542;49.078;9.194;2023-12-07T04:22:33;24.40;43.70
14901;DHT22;7542;49.078;9.194;2023-12-07T04:23:35;24.40;43.70
14901;DHT22;7542;49.078;9.194;2023-12-07T04:24:37;24.40;43.80
14901;DHT22;7542;49.078;9.194;2023-12-07T04:25:39;24.40;43.80
14901;DHT22;7542;49.078;9.194;2023-12-07T04:26:41;24.40;43.80
14901;DHT22;7542;49.078;9.194;2023-12-07T04:27:43;24.40;43.80
14901;DHT22;7542;49.078;9.194;2023-12-07T04:28:46;24.30;43.80
14901;DHT22;7542;49.078;9.194;2023-12-07T04:29:48;24.30;43.70
14901;DHT22;7542;49.078;9.194;2023-12-07T04:30:50;24.30;43.80
14901;DHT22;7542;49.078;9.194;2023-12-07T04:31:52;24.40;43.80
14901;DHT22;7542;49.078;9.194;2023-12-07T04:32:54;24.30;43.80
14901;DHT22;7542;49.078;9.194;2023-12-07T04:33:57;24.30;43.80
14901;DHT22;7542;49.078;9.194;2023-12-07T04:34:59;24.30;43.80
14901;DHT22;7542;49.078;9.194;2023-12-07T04:36:01;24.30;43.80
14901;DHT22;7542;49.078;9.194;2023-12-07T04:37:06;24.30;43.80
14901;DHT22;7542;49.078;9.194;2023-12-07T04:38:08;24.30;43.90
14901;DHT22;7542;49.078;9.194;2023-12-07T04:39:10;24.40;43.90
14901;DHT22;7542;49.078;9.194;2023-12-07T04:40:12;24.30;43.80
14901;DHT22;7542;49.078;9.194;2023-12-07T04:41:14;24.20;43.80
14901;DHT22;7542;49.078;9.194;2023-12-07T04:42:16;24.30;43.80
14901;DHT22;7542;49.078;9.194;2023-12-07T04:43:18;24.30;43.90
14901;DHT22;7542;49.078;9.194;2023-12-07T04:44:20;24.20;43.80
14901;DHT22;7542;49.078;9.194;2023-12-07T04:45:22;24.30;43.80
14901;DHT22;7542;49.078;9.194;2023-12-07T04:46:24;24.20;43.80
14901;DHT22;7542;49.078;9.194;2023-12-07T04:47:27;24.20;43.70
14901;DHT22;7542;49.078;9.194;2023-12-07T04:48:29;24.20;43.80
14901;DHT22;7542;49.078;9.194;2023-12-07T04:49:31;24.20;43.70
14901;DHT22;7542;49.078;9.194;2023-12-07T04:50:33;24.20;43.70
14901;DHT22;7542;49.078;9.194;2023-12-07T04:51:35;24.10;43.70
14901;DHT22;7542;49.078;9.194;2023-12-07T04:52:38;24.20;43.70
14901;DHT22;7542;49.078;9.194;2023-12-07T04:53:40;24.20;43.80
14901;DHT22;7542;49.078;9.194;2023-12-07T04:54:42;24.10;43.80
14901;DHT22;7542;49.078;9.194;2023-12-07T04:55:44;24.20;43.80
14901;DHT22;7542;49.078;9.194;2023-12-07T04:56:51;24.10;43.80
14901;DHT22;7542;49.078;9.194;2023-12-07T04:57:53;24.10;43.80
14901;DHT22;7542;49.078;9.194;2023-12-07T04:58:55;24.10;43.80
14901;DHT22;7542;49.078;9.194;2023-12-07T04:59:57;24.10;43.80
14901;DHT22;7542;49.078;9.194;2023-12-07T05:00:59;24.10;43.80
14901;DHT22;7542;49.078;9.194;2023-12-07T05:02:02;24.10;43.80
14901;DHT22;7542;49.078;9.194;2023-12-07T05:03:04;24.10;43.80
14901;DHT22;7542;49.078;9.194;2023-12-07T05:04:06;24.10;43.80
14901;DHT22;7542;49.078;9.194;2023-12-07T05:05:08;24.10;43.90
14901;DHT22;7542;49.078;9.194;2023-12-07T05:06:11;24.10;43.80
14901;DHT22;7542;49.078;9.194;2023-12-07T05:07:13;24.00;43.60
14901;DHT22;7542;49.078;9.194;2023-12-07T05:08:16;24.10;43.70
14901;DHT22;7542;49.078;9.194;2023-12-07T05:09:18;24.00;43.50
14901;DHT22;7542;49.078;9.194;2023-12-07T05:10:20;24.00;43.50
14901;DHT22;7542;49.078;9.194;2023-12-07T05:11:22;24.00;43.50
14901;DHT22;7542;49.078;9.194;2023-12-07T05:12:24;24.00;43.50
14901;DHT22;7542;49.078;9.194;2023-12-07T05:13:27;23.90;43.60
14901;DHT22;7542;49.078;9.194;2023-12-07T05:14:31;23.90;43.60
14901;DHT22;7542;49.078;9.194;2023-12-07T05:15:33;23.90;43.50
14901;DHT22;7542;49.078;9.194;2023-12-07T05:16:35;23.90;43.50
14901;DHT22;7542;49.078;9.194;2023-12-07T05:17:38;23.90;43.50
14901;DHT22;7542;49.078;9.194;2023-12-07T05:18:40;23.90;43.50
14901;DHT22;7542;49.078;9.194;2023-12-07T05:19:44;24.00;43.50
14901;DHT22;7542;49.078;9.194;2023-12-07T05:20:46;24.00;43.50
14901;DHT22;7542;49.078;9.194;2023-12-07T05:21:49;24.00;43.50
14901;DHT22;7542;49.078;9.194;2023-12-07T05:22:51;24.00;43.40
14901;DHT22;7542;49.078;9.194;2023-12-07T05:23:53;24.00;43.30
14901;DHT22;7542;49.078;9.194;2023-12-07T05:24:55;24.00;43.30
14901;DHT22;7542;49.078;9.194;2023-12-07T05:25:57;24.00;43.30
14901;DHT22;7542;49.078;9.194;2023-12-07T05:26:59;24.00;43.30
14901;DHT22;7542;49.078;9.194;2023-12-07T05:28:01;24.10;43.40
14901;DHT22;7542;49.078;9.194;2023-12-07T05:29:05;24.00;43.40
14901;DHT22;7542;49.078;9.194;2023-12-07T05:30:07;24.00;43.40
14901;DHT22;7542;49.078;9.194;2023-12-07T05:31:16;24.00;43.30
14901;DHT22;7542;49.078;9.194;2023-12-07T05:32:19;24.00;43.30
14901;DHT22;7542;49.078;9.194;2023-12-07T05:33:21;24.00;43.30
14901;DHT22;7542;49.078;9.194;2023-12-07T05:34:23;24.00;43.40
14901;DHT22;7542;49.078;9.194;2023-12-07T05:35:25;24.00;43.30
14901;DHT22;7542;49.078;9.194;2023-12-07T05:36:27;24.10;43.40
14901;DHT22;7542;49.078;9.194;2023-12-07T05:37:32;24.00;43.30
14901;DHT22;7542;49.078;9.194;2023-12-07T05:38:34;24.10;43.40
14901;DHT22;7542;49.078;9.194;2023-12-07T05:39:36;24.00;43.30
14901;DHT22;7542;49.078;9.194;2023-12-07T05:40:38;24.10;43.50
14901;DHT22;7542;49.078;9.194;2023-12-07T05:41:40;24.10;43.40
14901;DHT22;7542;49.078;9.194;2023-12-07T05:42:42;24.00;43.40
14901;DHT22;7542;49.078;9.194;2023-12-07T05:43:45;24.10;43.50
14901;DHT22;7542;49.078;9.194;2023-12-07T05:44:47;24.00;43.30
14901;DHT22;7542;49.078;9.194;2023-12-07T05:45:49;24.10;43.50
14901;DHT22;7542;49.078;9.194;2023-12-07T05:46:51;24.00;43.40
14901;DHT22;7542;49.078;9.194;2023-12-07T05:47:54;24.00;43.30
14901;DHT22;7542;49.078;9.194;2023-12-07T05:48:56;24.00;43.30
14901;DHT22;7542;49.078;9.194;2023-12-07T05:49:58;24.10;43.50
14901;DHT22;7542;49.078;9.194;2023-12-07T05:51:02;24.00;43.40
14901;DHT22;7542;49.078;9.194;2023-12-07T05:52:04;24.00;43.40
14901;DHT22;7542;49.078;9.194;2023-12-07T05:53:07;24.00;43.40
14901;DHT22;7542;49.078;9.194;2023-12-07T05:54:09;24.00;43.40
14901;DHT22;7542;49.078;9.194;2023-12-07T05:55:11;24.00;43.40
14901;DHT22;7542;49.078;9.194;2023-12-07T05:56:18;23.90;43.40
14901;DHT22;7542;49.078;9.194;2023-12-07T05:57:24;23.90;43.50
14901;DHT22;7542;49.078;9.194;2023-12-07T05:58:26;23.90;43.40
14901;DHT22;7542;49.078;9.194;2023-12-07T05:59:29;23.90;43.40
14901;DHT22;7542;49.078;9.194;2023-12-07T06:00:31;23.90;43.40
14901;DHT22;7542;49.078;9.194;2023-12-07T06:01:33;23.90;43.50
14901;DHT22;7542;49.078;9.194;2023-12-07T06:02:36;23.90;43.50
14901;DHT22;7542;49.078;9.194;2023-12-07T06:03:38;24.10;43.60
14901;DHT22;7542;49.078;9.194;2023-12-07T06:04:40;23.90;43.50
14901;DHT22;7542;49.078;9.194;2023-12-07T06:05:42;23.90;43.50
14901;DHT22;7542;49.078;9.194;2023-12-07T06:06:47;23.90;43.50
14901;DHT22;7542;49.078;9.194;2023-12-07T06:07:49;23.90;43.50
14901;DHT22;7542;49.078;9.194;2023-12-07T06:08:51;23.90;43.50
14901;DHT22;7542;49.078;9.194;2023-12-07T06:09:53;23.90;43.50
14901;DHT22;7542;49.078;9.194;2023-12-07T06:10:55;24.00;43.50
14901;DHT22;7542;49.078;9.194;2023-12-07T06:11:58;23.80;43.40
14901;DHT22;7542;49.078;9.194;2023-12-07T06:13:01;23.90;43.50
14901;DHT22;7542;49.078;9.194;2023-12-07T06:14:03;23.80;43.40
14901;DHT22;7542;49.078;9.194;2023-12-07T06:15:08;23.80;43.40
14901;DHT22;7542;49.078;9.194;2023-12-07T06:16:12;23.90;43.50
14901;DHT22;7542;49.078;9.194;2023-12-07T06:17:15;23.90;43.50
14901;DHT22;7542;49.078;9.194;2023-12-07T06:18:18;23.80;43.50
14901;DHT22;7542;49.078;9.194;2023-12-07T06:19:22;23.80;43.40
14901;DHT22;7542;49.078;9.194;2023-12-07T06:20:25;23.80;43.50
14901;DHT22;7542;49.078;9.194;2023-12-07T06:21:27;23.80;43.50
14901;DHT22;7542;49.078;9.194;2023-12-07T06:22:31;23.80;43.40
14901;DHT22;7542;49.078;9.194;2023-12-07T06:23:33;23.80;43.50
14901;DHT22;7542;49.078;9.194;2023-12-07T06:24:35;23.80;43.50
14901;DHT22;7542;49.078;9.194;2023-12-07T06:25:41;23.80;43.50
14901;DHT22;7542;49.078;9.194;2023-12-07T06:26:43;23.80;43.50
14901;DHT22;7542;49.078;9.194;2023-12-07T06:27:46;23.70;43.50
14901;DHT22;7542;49.078;9.194;2023-12-07T06:28:48;23.70;43.50
14901;DHT22;7542;49.078;9.194;2023-12-07T06:29:50;23.70;43.50
14901;DHT22;7542;49.078;9.194;2023-12-07T06:30:52;23.70;43.50
14901;DHT22;7542;49.078;9.194;2023-12-07T06:31:55;23.70;43.50
14901;DHT22;7542;49.078;9.194;2023-12-07T06:32:57;23.70;43.50
14901;DHT22;7542;49.078;9.194;2023-12-07T06:33:59;23.60;43.40
14901;DHT22;7542;49.078;9.194;2023-12-07T06:35:02;23.70;43.50
14901;DHT22;7542;49.078;9.194;2023-12-07T06:36:08;23.70;43.60
14901;DHT22;7542;49.078;9.194;2023-12-07T06:37:11;23.70;43.50
14901;DHT22;7542;49.078;9.194;2023-12-07T06:38:13;23.60;43.50
14901;DHT22;7542;49.078;9.194;2023-12-07T06:39:15;23.70;43.50
14901;DHT22;7542;49.078;9.194;2023-12-07T06:40:18;23.70;43.50
14901;DHT22;7542;49.078;9.194;2023-12-07T06:41:20;23.70;43.50
14901;DHT22;7542;49.078;9.194;2023-12-07T06:42:22;23.70;43.60
14901;DHT22;7542;49.078;9.194;2023-12-07T06:43:25;23.70;43.50
14901;DHT22;7542;49.078;9.194;2023-12-07T06:44:27;23.70;43.50
14901;DHT22;7542;49.078;9.194;2023-12-07T06:45:29;23.70;43.50
14901;DHT22;7542;49.078;9.194;2023-12-07T06:46:31;23.70;43.50
14901;DHT22;7542;49.078;9.194;2023-12-07T06:47:34;23.70;43.50